createdAt,value
2018-11-03T00:00:28.342Z,6.00
2018-11-03T00:05:19.329Z,6.00
2018-11-03T00:10:10.242Z,6.00
2018-11-03T00:15:01.234Z,5.90
2018-11-03T00:19:52.145Z,5.90
2018-11-03T00:24:43.869Z,5.90
2018-11-03T00:29:35.572Z,5.90
2018-11-03T00:34:27.300Z,5.80
2018-11-03T00:39:18.239Z,5.80
2018-11-03T00:44:09.212Z,5.80
2018-11-03T00:49:00.663Z,5.80
2018-11-03T00:53:52.401Z,5.80
2018-11-03T00:58:44.045Z,5.80
2018-11-03T01:03:35.050Z,5.80
2018-11-03T01:08:26.021Z,5.80
2018-11-03T01:13:17.679Z,5.80
2018-11-03T01:18:08.599Z,5.80
2018-11-03T01:22:59.516Z,5.80
2018-11-03T01:27:50.436Z,5.80
2018-11-03T01:32:41.434Z,5.80
2018-11-03T01:37:33.016Z,5.80
2018-11-03T01:42:23.962Z,5.80
2018-11-03T01:47:14.849Z,5.80
2018-11-03T01:52:05.753Z,5.80
2018-11-03T01:56:56.677Z,5.80
2018-11-03T02:01:47.592Z,5.80
2018-11-03T02:06:38.506Z,5.80
2018-11-03T02:11:29.424Z,5.80
2018-11-03T02:16:20.349Z,5.80
2018-11-03T02:21:11.281Z,5.70
2018-11-03T02:26:02.196Z,5.80
2018-11-03T02:30:53.118Z,5.80
2018-11-03T02:35:44.037Z,5.80
2018-11-03T02:40:34.972Z,5.80
2018-11-03T02:45:25.885Z,5.80
2018-11-03T02:50:16.841Z,5.80
2018-11-03T02:55:07.769Z,5.80
2018-11-03T02:59:58.691Z,5.80
2018-11-03T03:04:49.587Z,5.90
2018-11-03T03:09:40.515Z,5.90
2018-11-03T03:14:31.504Z,5.90
2018-11-03T03:19:23.164Z,5.90
2018-11-03T03:24:14.818Z,6.00
2018-11-03T03:29:05.774Z,6.00
2018-11-03T03:33:56.649Z,6.00
2018-11-03T03:38:47.565Z,6.00
2018-11-03T03:43:38.501Z,6.00
2018-11-03T03:48:30.960Z,6.10
2018-11-03T03:53:21.876Z,6.00
2018-11-03T03:58:12.775Z,6.00
2018-11-03T04:03:03.680Z,6.10
2018-11-03T04:07:54.613Z,6.10
2018-11-03T04:12:46.265Z,6.10
2018-11-03T04:17:37.168Z,6.10
2018-11-03T04:22:28.823Z,6.10
2018-11-03T04:27:20.489Z,6.20
2018-11-03T04:32:11.470Z,6.20
2018-11-03T04:37:02.424Z,6.10
2018-11-03T04:41:53.406Z,6.10
2018-11-03T04:46:44.327Z,6.10
2018-11-03T04:51:35.249Z,6.10
2018-11-03T04:56:26.927Z,6.10
2018-11-03T05:01:17.854Z,6.10
2018-11-03T05:06:08.850Z,6.20
2018-11-03T05:10:59.819Z,6.20
2018-11-03T05:15:50.750Z,6.20
2018-11-03T05:20:41.664Z,6.20
2018-11-03T05:25:32.617Z,6.20
2018-11-03T05:30:23.525Z,6.20
2018-11-03T05:35:14.434Z,6.20
2018-11-03T05:40:06.121Z,6.20
2018-11-03T05:44:57.071Z,6.20
2018-11-03T05:49:48.737Z,6.20
2018-11-03T05:54:39.723Z,6.20
2018-11-03T05:59:30.645Z,6.20
2018-11-03T06:04:21.579Z,6.20
2018-11-03T06:09:12.508Z,6.20
2018-11-03T06:14:03.425Z,6.20
2018-11-03T06:18:54.344Z,6.20
2018-11-03T06:23:45.309Z,6.20
2018-11-03T06:28:36.311Z,6.20
2018-11-03T06:33:27.374Z,6.20
2018-11-03T06:38:18.292Z,6.20
2018-11-03T06:43:09.205Z,6.20
2018-11-03T06:48:00.668Z,6.30
2018-11-03T06:52:51.573Z,6.30
2018-11-03T06:57:42.509Z,6.30
2018-11-03T07:02:33.449Z,6.30
2018-11-03T07:07:24.460Z,6.30
2018-11-03T07:12:16.196Z,6.30
2018-11-03T07:17:07.079Z,6.30
2018-11-03T07:21:58.004Z,6.40
2018-11-03T07:26:50.405Z,6.40
2018-11-03T07:31:41.400Z,6.40
2018-11-03T07:36:32.309Z,6.50
2018-11-03T07:41:23.288Z,6.50
2018-11-03T07:46:14.891Z,6.70
2018-11-03T07:51:05.813Z,6.60
2018-11-03T07:55:56.769Z,6.70
2018-11-03T08:00:47.682Z,6.80
2018-11-03T08:05:39.345Z,6.90
2018-11-03T08:10:30.281Z,6.90
2018-11-03T08:15:21.954Z,7.00
2018-11-03T08:20:12.872Z,7.00
2018-11-03T08:25:03.788Z,7.10
2018-11-03T08:29:54.703Z,7.10
2018-11-03T08:34:46.365Z,7.30
2018-11-03T08:39:37.421Z,7.20
2018-11-03T08:44:28.281Z,7.30
2018-11-03T08:49:19.216Z,7.30
2018-11-03T08:54:10.132Z,7.40
2018-11-03T08:59:01.826Z,7.50
2018-11-03T09:03:53.484Z,7.50
2018-11-03T09:08:44.408Z,7.50
2018-11-03T09:13:36.083Z,7.60
2018-11-03T09:18:27.009Z,7.50
2018-11-03T09:23:18.682Z,7.60
2018-11-03T09:28:09.620Z,7.60
2018-11-03T09:33:00.536Z,7.70
2018-11-03T09:37:51.465Z,7.80
2018-11-03T09:42:42.450Z,7.80
2018-11-03T09:47:33.412Z,7.90
2018-11-03T09:52:24.359Z,8.00
2018-11-03T09:57:15.390Z,8.20
2018-11-03T10:02:07.040Z,8.30
2018-11-03T10:06:57.994Z,8.30
2018-11-03T10:11:48.927Z,8.40
2018-11-03T10:16:39.846Z,8.40
2018-11-03T10:21:30.781Z,8.50
2018-11-03T10:26:22.453Z,8.70
2018-11-03T10:31:13.394Z,8.70
2018-11-03T10:36:05.103Z,9.10
2018-11-03T10:40:56.779Z,9.40
2018-11-03T10:45:47.685Z,9.30
2018-11-03T10:50:39.355Z,10.00
2018-11-03T10:55:30.360Z,9.90
2018-11-03T11:00:21.518Z,10.10
2018-11-03T11:05:18.532Z,10.30
2018-11-03T11:10:09.531Z,10.40
2018-11-03T11:15:00.447Z,10.50
2018-11-03T11:19:51.364Z,10.60
2018-11-03T11:24:42.411Z,10.80
2018-11-03T11:29:33.295Z,10.90
2018-11-03T11:34:24.952Z,11.10
2018-11-03T11:39:15.894Z,11.10
2018-11-03T11:44:06.843Z,11.30
2018-11-03T11:48:57.776Z,11.30
2018-11-03T11:53:48.667Z,11.40
2018-11-03T11:58:40.323Z,11.50
2018-11-03T12:03:31.267Z,11.50
2018-11-03T12:08:23.010Z,11.50
2018-11-03T12:13:13.980Z,11.60
2018-11-03T12:18:04.912Z,11.60
2018-11-03T12:22:56.571Z,11.60
2018-11-03T12:27:47.533Z,11.60
2018-11-03T12:32:38.485Z,11.60
2018-11-03T12:37:29.447Z,11.60
2018-11-03T12:42:20.371Z,11.60
2018-11-03T12:47:11.317Z,11.60
2018-11-03T12:52:02.963Z,11.60
2018-11-03T12:56:53.949Z,11.60
2018-11-03T13:01:44.848Z,11.60
2018-11-03T13:06:35.802Z,11.60
2018-11-03T13:11:27.453Z,11.60
2018-11-03T13:16:18.375Z,11.60
2018-11-03T13:21:09.330Z,11.60
2018-11-03T13:26:00.287Z,11.60
2018-11-03T13:30:51.180Z,11.60
2018-11-03T13:35:42.841Z,11.60
2018-11-03T13:40:33.818Z,11.60
2018-11-03T13:45:24.820Z,11.60
2018-11-03T13:50:15.754Z,11.50
2018-11-03T13:55:07.438Z,11.50
2018-11-03T13:59:59.072Z,11.50
2018-11-03T14:04:50.026Z,11.50
2018-11-03T14:09:41.176Z,11.50
2018-11-03T14:14:32.066Z,11.50
2018-11-03T14:19:22.972Z,11.40
2018-11-03T14:24:14.643Z,11.40
2018-11-03T14:29:05.627Z,11.40
2018-11-03T14:33:56.465Z,11.40
2018-11-03T14:38:47.398Z,11.40
2018-11-03T14:43:38.321Z,11.30
2018-11-03T14:48:30.263Z,11.30
2018-11-03T14:53:21.217Z,11.20
2018-11-03T14:58:12.857Z,11.10
2018-11-03T15:03:03.778Z,11.10
2018-11-03T15:07:54.691Z,11.00
2018-11-03T15:12:45.636Z,11.00
2018-11-03T15:17:37.298Z,10.80
2018-11-03T15:22:28.301Z,10.70
2018-11-03T15:27:19.154Z,10.70
2018-11-03T15:32:10.805Z,10.50
2018-11-03T15:37:01.694Z,10.50
2018-11-03T15:41:52.613Z,10.50
2018-11-03T15:46:44.258Z,10.30
2018-11-03T15:51:35.147Z,10.30
2018-11-03T15:56:26.063Z,10.20
2018-11-03T16:01:17.015Z,10.10
2018-11-03T16:06:08.737Z,9.90
2018-11-03T16:10:59.623Z,9.90
2018-11-03T16:15:50.508Z,9.90
2018-11-03T16:20:42.197Z,9.70
2018-11-03T16:25:33.162Z,9.70
2018-11-03T16:30:24.096Z,9.60
2018-11-03T16:35:15.008Z,9.50
2018-11-03T16:40:05.921Z,9.40
2018-11-03T16:44:57.621Z,9.30
2018-11-03T16:49:48.652Z,9.20
2018-11-03T16:54:40.287Z,9.10
2018-11-03T16:59:31.228Z,9.10
2018-11-03T17:04:22.265Z,9.00
2018-11-03T17:09:13.165Z,8.80
2018-11-03T17:14:04.445Z,8.70
2018-11-03T17:18:55.491Z,8.60
2018-11-03T17:23:47.132Z,8.30
2018-11-03T17:28:38.080Z,8.30
2018-11-03T17:33:30.616Z,8.10
2018-11-03T17:38:21.676Z,8.00
2018-11-03T17:43:12.645Z,8.00
2018-11-03T17:48:03.625Z,7.80
2018-11-03T17:52:54.627Z,7.70
2018-11-03T17:57:46.277Z,7.40
2018-11-03T18:02:37.245Z,7.40
2018-11-03T18:07:28.904Z,7.20
2018-11-03T18:12:19.912Z,7.10
2018-11-03T18:17:10.937Z,7.10
2018-11-03T18:22:01.952Z,6.90
2018-11-03T18:26:52.891Z,6.80
2018-11-03T18:31:44.640Z,6.60
2018-11-03T18:36:36.353Z,6.50
2018-11-03T18:41:27.386Z,6.50
2018-11-03T18:46:18.375Z,6.40
2018-11-03T18:51:09.371Z,6.30
2018-11-03T18:56:00.458Z,6.20
2018-11-03T19:00:51.498Z,6.10
2018-11-03T19:05:43.200Z,5.90
2018-11-03T19:10:34.912Z,5.80
2018-11-03T19:15:25.919Z,5.80
2018-11-03T19:20:17.652Z,5.70
2018-11-03T19:25:08.578Z,5.60
2018-11-03T19:29:59.540Z,5.60
2018-11-03T19:34:51.206Z,5.50
2018-11-03T19:39:42.233Z,5.40
2018-11-03T19:44:33.971Z,5.30
2018-11-03T19:49:25.613Z,5.30
2018-11-03T19:54:16.600Z,5.30
2018-11-03T19:59:08.258Z,5.10
2018-11-03T20:03:59.177Z,5.10
2018-11-03T20:08:50.152Z,5.00
2018-11-03T20:13:41.065Z,5.00
2018-11-03T20:18:32.045Z,4.90
2018-11-03T20:23:22.958Z,4.80
2018-11-03T20:28:13.891Z,4.70
2018-11-03T20:33:04.901Z,4.70
2018-11-03T20:37:55.860Z,4.60
2018-11-03T20:42:46.788Z,4.50
2018-11-03T20:47:37.802Z,4.40
2018-11-03T20:52:28.763Z,4.40
2018-11-03T20:57:20.504Z,4.30
2018-11-03T21:02:11.536Z,4.20
2018-11-03T21:07:02.476Z,4.00
2018-11-03T21:11:54.111Z,4.10
2018-11-03T21:16:45.098Z,4.00
2018-11-03T21:21:36.039Z,4.00
2018-11-03T21:26:27.753Z,3.90
2018-11-03T21:31:19.461Z,3.80
2018-11-03T21:36:11.132Z,3.70
2018-11-03T21:41:02.119Z,3.70
2018-11-03T21:45:53.071Z,3.70
2018-11-03T21:50:44.809Z,3.60
2018-11-03T21:55:35.807Z,3.50
2018-11-03T22:00:26.766Z,3.50
2018-11-03T22:05:17.741Z,3.50
2018-11-03T22:10:08.702Z,3.40
2018-11-03T22:15:00.412Z,3.30
2018-11-03T22:19:51.397Z,3.30
2018-11-03T22:24:42.329Z,3.30
2018-11-03T22:29:33.345Z,3.20
2018-11-03T22:34:25.045Z,3.20
2018-11-03T22:39:15.987Z,3.20
2018-11-03T22:44:06.964Z,3.10
2018-11-03T22:48:57.941Z,3.10
2018-11-03T22:53:49.672Z,3.00
2018-11-03T22:58:40.692Z,3.00
2018-11-03T23:03:31.650Z,3.00
2018-11-03T23:08:22.581Z,2.90
2018-11-03T23:13:13.628Z,2.80
2018-11-03T23:18:04.497Z,2.90
2018-11-03T23:22:55.454Z,2.80
2018-11-03T23:28:02.154Z,2.80
2018-11-03T23:32:53.139Z,2.70
2018-11-03T23:37:44.062Z,2.70
2018-11-03T23:42:35.009Z,2.70
2018-11-03T23:47:26.095Z,2.70
2018-11-03T23:52:17.003Z,2.60
2018-11-03T23:57:07.913Z,2.60
